Terminal Aerodrome Forecast
Issued by NWS Goodland, KS

Home | Current Version | Previous Version | Text Only | Print | Product List | Glossary On
Versions: 1 2 3 4 5 6 7 8 9 10 11 12 13 14 15 16 17 18 19 20 21 22 23
000
FTUS43 KGLD 181459 AAB
TAFGLD
TAF AMD
KGLD 181459Z 1815/1912 25006KT 5SM BR BKN007
      TEMPO 1815/1816 1/2SM FG OVC003
     FM181700 24006KT P6SM BKN015
     FM182000 30006KT P6SM BKN035=

USA.gov is the U.S. government's official web portal to all federal, state and local government web resources and services.